Terminal Aerodrome Forecast
Issued by NWS

Home | Current Version | Previous Version | Text Only | Print | Product List | Glossary On
Versions: 1 2 3 4 5 6 7 8 9 10 11 12 13
000
FTUS44 KCRP 010531
TAFALI
TAF
KALI 010531Z 0106/0206 VRB04KT P6SM FEW018 SCT250
     FM011200 14006KT P6SM VCTS SCT025CB BKN035
     FM011700 13012KT P6SM VCTS BKN035CB OVC150
     FM012300 13010KT P6SM BKN150=

USA.gov is the U.S. government's official web portal to all federal, state and local government web resources and services.